Pagina principale
METAR-TAF:

METAR-TAF

Aeroporti :

Aeroporto di Catania-Fontanarossa

Catania, Italia

latitudine: 37-28N, longitudine: 015-03E, altezza: 11 m

Osservazione

Il bollettino è stato emesso 31 minuti fa, alle 02:50 UTC
Vento 4 kt da ovest/sud-ovest
Temperature 3°C
Umidità 93%
Pressione 1023 hPa
Visibilità 10 km o più
nessuna nube inferiore a 1500 m e nessun cumulonembo

METAR: LICC 240250Z 24004KT CAVOK 03/02 Q1023

Ora: 04:21 (03:21 UTC)

Previsione

Il bollettino è stato emesso 4 ore e 21 minuti fa, alle 23:00 UTC
Previsione valida dal 24 alle 00 UTC al 24 alle 24 UTC
Vento 7 kt da ovest/sud-ovest
Visibilità 10 km o più
nessuna nube inferiore a 1500 m e nessun cumulonembo
Evoluzione graduale
dal 24 alle 08 UTC al 24 alle 10 UTC
Vento 10 kt da est/nord-est
Evoluzione graduale
dal 24 alle 18 UTC al 24 alle 20 UTC
Vento 4 kt da direzioni variabili

TAF: LICC 232300Z 2400/2424 24007KT CAVOK BECMG 2408/2410 06010KT BECMG 2418/2420 VRB04KT

Osservazioni e previsioni meteorologiche di più di 4000 aeroporti (messaggi METAR e TAF).

Le stazioni disponibili sono rappresentate dai dischi gialli e rossi sulla carta.

Puntare il mouse per vedere il nome della stazione.

Clicca sopra per visualizzare le osservazioni e previsioni meteorologiche.

Per cambiare la mappa : fare clic sui pulsanti verdi con una croce nera per ingrandire, il pulsante verde con un trattino per diminuire, o sulla freccia verde per le mappe adiacenti.


METAR-TAF: